Time;durP1;ratioP1;P1;durP2;ratioP2;P2;SDS_P1;SDS_P2;PMS_P1;PMS_P2;Temp;Humidity;BMP_temperature;BMP_pressure;BME280_temperature;BME280_humidity;BME280_pressure;Samples;Min_cycle;Max_cycle;Signal;HPM_P1;HPM_P2
2022/06/30 00:02:10;;;;;;;;;0.00;0.00;;;;;21.73;75.36;100973.75;5075890;28;45387;-82
2022/06/30 00:04:36;;;;;;;;;0.00;0.00;;;;;21.58;75.54;100957.91;5076545;27;45361;-87
2022/06/30 00:07:02;;;;;;;;;0.50;0.50;;;;;21.45;76.14;100951.69;5076776;28;45469;-86
2022/06/30 00:09:27;;;;;;;;;0.50;0.00;;;;;21.33;76.13;100950.78;5075644;28;45399;-85
2022/06/30 00:11:53;;;;;;;;;0.00;0.00;;;;;21.28;77.06;100949.03;5075873;27;45242;-86
2022/06/30 00:14:18;;;;;;;;;0.00;0.00;;;;;21.22;77.52;100949.03;5088877;27;45280;-87
2022/06/30 00:16:44;;;;;;;;;2.50;0.00;;;;;21.20;77.57;100959.56;5096132;27;45604;-87
2022/06/30 00:19:09;;;;;;;;;1.00;0.00;;;;;21.18;77.75;100977.97;5096648;27;46060;-86
2022/06/30 00:21:35;;;;;;;;;1.00;0.00;;;;;21.13;79.06;100976.19;5100904;27;45322;-87
2022/06/30 00:24:01;;;;;;;;;0.50;0.00;;;;;21.08;78.84;100970.91;5099474;27;45271;-87
2022/06/30 00:26:26;;;;;;;;;0.25;0.25;;;;;21.07;79.29;100961.25;5096783;27;45531;-88
2022/06/30 00:28:52;;;;;;;;;1.25;0.25;;;;;;;;5096242;27;45481;-89
2022/06/30 00:31:18;;;;;;;;;0.75;0.75;;;;;20.99;81.49;100963.88;5096431;27;45173;-88
2022/06/30 00:33:44;;;;;;;;;0.00;0.00;;;;;20.94;81.33;100967.38;5096431;27;45362;-88
2022/06/30 00:36:09;;;;;;;;;0.75;0.00;;;;;20.92;81.38;100963.84;5077822;27;45602;-88
2022/06/30 00:38:35;;;;;;;;;0.75;0.75;;;;;20.86;81.12;100965.56;5096245;27;45370;-89
2022/06/30 00:41:00;;;;;;;;;1.00;1.00;;;;;20.81;83.29;100976.94;5098179;27;45417;-88
2022/06/30 00:43:26;;;;;;;;;1.00;1.00;;;;;20.72;83.73;100975.97;5083628;27;45468;-88
2022/06/30 00:45:51;;;;;;;;;0.50;0.25;;;;;20.64;84.31;100964.53;5102142;27;45350;-87
2022/06/30 00:48:18;;;;;;;;;0.00;0.00;;;;;20.64;86.81;100968.91;5103292;27;45875;-88
2022/06/30 00:50:44;;;;;;;;;2.00;0.25;;;;;20.62;85.74;100966.28;5101997;27;45232;-87
2022/06/30 00:53:11;;;;;;;;;2.25;1.00;;;;;20.61;86.59;100966.28;5099382;27;45302;-86
2022/06/30 00:55:38;;;;;;;;;1.00;1.00;;;;;20.57;85.97;100973.28;5100462;27;45497;-88
2022/06/30 00:58:08;;;;;;;;;1.00;1.00;;;;;20.57;85.81;100975.91;5099850;27;45722;-84
2022/06/30 01:00:38;;;;;;;;;0.00;0.00;;;;;20.56;86.55;100972.38;5099393;27;45600;-84
2022/06/30 01:03:05;;;;;;;;;0.75;0.75;;;;;20.55;87.17;100960.09;5099384;27;45331;-85
2022/06/30 01:05:31;;;;;;;;;3.50;1.25;;;;;20.52;86.95;100957.44;5099387;27;45669;-84
2022/06/30 01:07:57;;;;;;;;;1.50;1.00;;;;;20.49;87.53;100964.44;5099027;27;45835;-87
2022/06/30 01:13:07;;;;;;;;;1.75;1.00;;;;;20.45;87.99;100974.06;5101893;27;45361;-83
2022/06/30 01:15:33;;;;;;;;;1.00;1.00;;;;;20.42;87.78;100961.78;5104096;27;45168;-82
2022/06/30 01:17:59;;;;;;;;;2.00;1.00;;;;;20.45;88.89;100955.66;5100481;27;45323;-87
2022/06/30 01:20:27;;;;;;;;;2.00;1.00;;;;;20.41;88.96;100954.75;5098947;27;45414;-82
2022/06/30 01:22:52;;;;;;;;;1.50;1.50;;;;;20.40;89.15;100966.16;5099376;27;45191;-83
2022/06/30 01:25:18;;;;;;;;;1.00;1.00;;;;;20.36;89.55;100959.09;5098808;27;45548;-83
2022/06/30 01:27:43;;;;;;;;;1.25;1.25;;;;;20.36;89.16;100966.13;5098595;27;46043;-86
2022/06/30 01:30:10;;;;;;;;;1.75;1.75;;;;;20.31;90.64;100958.19;5098423;27;45369;-88
2022/06/30 01:32:36;;;;;;;;;1.00;1.00;;;;;20.32;90.69;100959.06;5099377;27;45426;-87
2022/06/30 01:35:02;;;;;;;;;2.00;2.00;;;;;20.34;89.75;100965.22;5099180;27;45470;-88
2022/06/30 01:37:51;;;;;;;;;1.00;1.00;;;;;20.30;89.51;100964.31;5098592;27;45262;-87
2022/06/30 01:40:18;;;;;;;;;2.00;1.00;;;;;20.23;90.14;100958.16;5101524;27;45241;-83
2022/06/30 01:42:44;;;;;;;;;1.50;1.00;;;;;20.16;89.52;100952.81;5103597;27;45485;-86
2022/06/30 01:45:10;;;;;;;;;1.00;1.00;;;;;20.13;90.97;100952.81;5100533;27;45604;-86
2022/06/30 01:47:36;;;;;;;;;1.50;1.00;;;;;20.06;90.70;100968.53;5098961;27;45468;-86
2022/06/30 01:50:05;;;;;;;;;1.00;1.00;;;;;20.02;91.95;100964.13;5098426;27;45330;-87
2022/06/30 01:52:30;;;;;;;;;1.00;1.00;;;;;19.95;93.85;100972.81;5098031;27;45288;-85
2022/06/30 01:54:56;;;;;;;;;0.75;0.75;;;;;19.87;92.46;100977.13;5098792;27;45235;-88
2022/06/30 01:57:21;;;;;;;;;1.00;1.00;;;;;19.84;92.51;100985.84;5097957;27;45718;-87
2022/06/30 01:59:47;;;;;;;;;1.00;0.75;;;;;19.82;93.29;100986.66;5098588;27;45226;-84
2022/06/30 02:02:12;;;;;;;;;2.00;2.00;;;;;19.77;94.36;100982.25;5098484;27;45354;-89
2022/06/30 02:04:47;;;;;;;;;1.75;1.00;;;;;19.72;94.15;100993.59;5080429;27;45410;-87
2022/06/30 02:07:14;;;;;;;;;2.25;1.00;;;;;19.73;95.78;100997.97;5098361;27;45786;-88
2022/06/30 02:09:39;;;;;;;;;2.50;1.00;;;;;19.71;95.56;100991.84;5079674;27;45907;-86
2022/06/30 02:14:50;;;;;;;;;2.25;1.00;;;;;19.72;95.07;100970.81;5098570;27;45295;-88
2022/06/30 02:17:16;;;;;;;;;3.75;2.00;;;;;19.72;95.07;100960.31;5097483;27;45418;-87
2022/06/30 02:19:41;;;;;;;;;1.50;1.25;;;;;19.75;94.84;100952.47;5098404;27;45360;-86
2022/06/30 02:22:07;;;;;;;;;2.00;2.00;;;;;19.79;95.74;100959.53;5098096;27;45448;-88
2022/06/30 02:24:33;;;;;;;;;1.00;1.00;;;;;19.78;96.50;100941.09;5098554;27;45338;-87
2022/06/30 02:26:58;;;;;;;;;1.00;1.00;;;;;19.80;93.97;100944.63;5097737;27;45574;-88
2022/06/30 02:29:24;;;;;;;;;1.00;1.00;;;;;19.83;94.15;100943.75;5081450;27;45839;-87
2022/06/30 02:31:49;;;;;;;;;1.00;1.00;;;;;19.85;93.33;100949.91;5099168;27;45200;-86
2022/06/30 02:34:15;;;;;;;;;1.00;1.00;;;;;19.84;94.31;100949.06;5099972;27;45165;-86
2022/06/30 02:36:41;;;;;;;;;1.25;1.25;;;;;19.87;93.61;100953.47;5106736;27;45916;-87
2022/06/30 02:39:06;;;;;;;;;2.75;2.00;;;;;19.89;94.30;100955.25;5098744;27;45168;-87
2022/06/30 02:41:32;;;;;;;;;1.75;1.50;;;;;19.88;93.09;100947.34;5097762;27;45354;-87
2022/06/30 02:43:58;;;;;;;;;2.50;1.00;;;;;19.84;92.65;100959.56;5098114;27;45556;-86
2022/06/30 02:46:24;;;;;;;;;2.25;1.00;;;;;19.76;93.95;100956.84;5097041;27;46449;-87
2022/06/30 02:48:50;;;;;;;;;1.75;1.00;;;;;19.71;93.36;100948.03;5097488;27;45334;-86
2022/06/30 02:51:16;;;;;;;;;2.00;2.00;;;;;19.70;94.09;100938.44;5097854;27;45439;-85
2022/06/30 02:53:41;;;;;;;;;1.50;1.00;;;;;19.70;93.39;100954.19;5079328;27;45504;-87
2022/06/30 02:56:07;;;;;;;;;4.00;2.00;;;;;19.65;94.82;100954.13;5097797;27;45975;-88
2022/06/30 02:58:32;;;;;;;;;2.00;2.00;;;;;19.61;94.47;100967.19;5097636;27;45313;-87
2022/06/30 03:00:58;;;;;;;;;2.00;2.00;;;;;19.57;95.30;100968.06;5098091;27;45262;-81
2022/06/30 03:03:23;;;;;;;;;3.50;2.00;;;;;19.55;95.27;100975.91;5101194;27;45216;-83
2022/06/30 03:05:49;;;;;;;;;4.25;2.00;;;;;19.54;95.44;100970.66;5098175;27;46062;-86
2022/06/30 03:08:15;;;;;;;;;1.00;1.00;;;;;19.52;95.13;100964.50;5096942;27;45275;-87
2022/06/30 03:10:40;;;;;;;;;2.25;2.25;;;;;19.53;94.27;100975.03;5097346;27;45212;-85
2022/06/30 03:13:06;;;;;;;;;3.25;2.25;;;;;19.52;94.54;100977.63;5097853;27;45565;-84
2022/06/30 03:15:31;;;;;;;;;2.75;2.00;;;;;19.52;94.61;100986.41;5097198;27;45395;-85
2022/06/30 03:17:57;;;;;;;;;2.50;1.50;;;;;19.51;95.14;100970.59;5078735;27;45455;-84
2022/06/30 03:20:23;;;;;;;;;2.25;2.25;;;;;19.50;94.60;100969.75;5078654;27;45719;-84
2022/06/30 03:22:49;;;;;;;;;1.50;1.50;;;;;19.49;95.26;100968.84;5079018;27;45415;-85
2022/06/30 03:25:15;;;;;;;;;1.50;1.50;;;;;19.49;95.85;100981.09;5078106;27;46414;-85
2022/06/30 03:27:40;;;;;;;;;4.75;3.00;;;;;19.47;94.47;100983.72;5097580;27;45414;-86
2022/06/30 03:30:07;;;;;;;;;2.25;2.00;;;;;19.48;93.99;100979.34;5097962;27;45349;-86
2022/06/30 03:32:32;;;;;;;;;3.00;2.00;;;;;19.47;94.70;100975.84;5097280;27;45581;-85
2022/06/30 03:34:58;;;;;;;;;3.00;1.00;;;;;19.50;94.11;100975.00;5096611;27;45574;-88
2022/06/30 03:37:23;;;;;;;;;2.00;2.00;;;;;19.49;93.88;100974.09;5096621;27;45239;-88
2022/06/30 03:39:49;;;;;;;;;2.00;2.00;;;;;19.49;94.41;100963.59;5097053;27;45271;-88
2022/06/30 03:42:15;;;;;;;;;1.75;1.25;;;;;19.51;94.33;100965.34;5096943;27;45386;-88
2022/06/30 03:44:40;;;;;;;;;2.50;2.25;;;;;19.46;94.41;100965.31;5096830;27;46059;-86
2022/06/30 03:47:06;;;;;;;;;2.50;1.00;;;;;19.39;94.24;100979.25;5078856;27;45283;-87
2022/06/30 03:49:32;;;;;;;;;4.00;3.00;;;;;19.33;94.88;100980.91;5096515;27;45369;-85
2022/06/30 03:51:58;;;;;;;;;1.00;1.00;;;;;19.33;94.93;100977.44;5097546;27;45504;-84
2022/06/30 03:54:23;;;;;;;;;2.00;2.00;;;;;19.38;95.32;100990.59;5098822;27;45354;-85
2022/06/30 03:56:49;;;;;;;;;2.25;1.75;;;;;19.40;95.24;100983.63;5102274;27;45429;-85
2022/06/30 03:59:15;;;;;;;;;3.00;3.00;;;;;19.37;94.71;100987.13;5097071;27;45327;-86
2022/06/30 04:01:40;;;;;;;;;4.00;2.25;;;;;19.32;95.67;101000.19;5097270;27;45405;-88
2022/06/30 04:04:06;;;;;;;;;2.50;2.00;;;;;19.30;96.03;101004.53;5096989;27;45421;-87
2022/06/30 04:06:32;;;;;;;;;2.00;2.00;;;;;19.32;95.66;101008.06;5096543;27;45489;-86
2022/06/30 04:08:57;;;;;;;;;2.00;1.00;;;;;19.30;96.22;101001.91;5097131;27;45349;-85
2022/06/30 04:11:23;;;;;;;;;3.00;2.50;;;;;19.33;96.72;101008.94;5096394;27;45482;-83
2022/06/30 04:13:48;;;;;;;;;1.50;1.50;;;;;19.37;95.97;100996.72;5096393;27;46101;-85
2022/06/30 04:16:14;;;;;;;;;2.00;2.00;;;;;19.40;96.17;100991.50;5099678;27;45444;-87
2022/06/30 04:18:39;;;;;;;;;4.50;3.00;;;;;19.43;96.72;101002.91;5102303;27;45235;-88
2022/06/30 04:21:05;;;;;;;;;3.50;2.25;;;;;19.44;96.04;100993.28;5104839;27;45382;-83
2022/06/30 04:23:31;;;;;;;;;4.75;3.00;;;;;19.45;94.97;100988.06;5105600;27;45651;-86
2022/06/30 04:25:56;;;;;;;;;3.00;3.00;;;;;19.46;96.05;100989.84;5100917;27;45315;-86
2022/06/30 04:28:22;;;;;;;;;2.75;1.75;;;;;19.46;96.35;100984.59;5099578;27;45204;-86
2022/06/30 04:33:31;;;;;;;;;2.75;2.75;;;;;19.44;97.38;100981.06;5099594;27;45332;-85
2022/06/30 04:35:57;;;;;;;;;3.25;3.00;;;;;19.46;96.69;100983.69;5099903;27;45291;-84
2022/06/30 04:38:22;;;;;;;;;3.75;3.25;;;;;19.45;98.03;100990.69;5099723;27;45809;-88
2022/06/30 04:43:32;;;;;;;;;3.50;3.00;;;;;19.44;98.54;101011.66;5100029;27;46255;-86
2022/06/30 04:45:58;;;;;;;;;2.50;2.00;;;;;19.43;98.14;101009.94;5099479;27;45417;-85
2022/06/30 04:48:23;;;;;;;;;2.00;2.00;;;;;19.43;100.00;101002.06;5099400;27;45308;-88
2022/06/30 04:50:49;;;;;;;;;2.75;2.75;;;;;19.42;100.00;100993.28;5100301;27;45452;-87
2022/06/30 04:53:15;;;;;;;;;4.00;3.00;;;;;19.40;100.00;100995.00;5098903;27;45454;-85
2022/06/30 04:55:40;;;;;;;;;3.25;2.00;;;;;19.38;100.00;100988.88;5099446;27;45453;-86
2022/06/30 04:58:06;;;;;;;;;3.00;2.25;;;;;19.36;100.00;100985.34;5100553;27;45479;-84
2022/06/30 05:00:32;;;;;;;;;2.75;2.00;;;;;19.36;100.00;100987.06;5100275;27;45552;-85
2022/06/30 05:02:58;;;;;;;;;2.50;2.50;;;;;19.37;100.00;100994.09;5100383;27;46505;-88
2022/06/30 05:05:23;;;;;;;;;1.75;1.75;;;;;19.36;100.00;100984.44;5099519;27;45904;-87
2022/06/30 05:07:49;;;;;;;;;2.50;2.50;;;;;19.35;100.00;100975.72;5099724;27;45277;-85
2022/06/30 05:10:15;;;;;;;;;2.00;2.00;;;;;19.32;100.00;100973.94;5100433;27;45620;-86
2022/06/30 05:12:40;;;;;;;;;2.50;2.50;;;;;19.34;100.00;100974.81;5100703;27;45244;-91
2022/06/30 05:15:06;;;;;;;;;2.00;2.00;;;;;19.36;100.00;100968.69;5105226;27;45227;-90
2022/06/30 05:17:35;;;;;;;;;2.25;2.00;;;;;19.35;100.00;100962.56;5085347;27;45263;-89
2022/06/30 05:20:02;;;;;;;;;3.00;3.00;;;;;19.30;100.00;100962.53;5100808;27;45626;-89
2022/06/30 05:22:29;;;;;;;;;3.00;3.00;;;;;19.30;100.00;100961.63;5099173;27;45385;-89
2022/06/30 05:27:38;;;;;;;;;3.00;3.00;;;;;19.25;100.00;100955.47;5098744;27;45392;-88
2022/06/30 05:30:04;;;;;;;;;2.00;2.00;;;;;19.26;100.00;100954.59;5078901;27;45248;-89
2022/06/30 05:32:30;;;;;;;;;2.75;2.75;;;;;19.25;100.00;100969.47;5077498;28;46343;-88
2022/06/30 05:34:56;;;;;;;;;2.25;2.25;;;;;19.21;100.00;100983.44;5078385;28;45241;-83
2022/06/30 05:37:21;;;;;;;;;2.00;2.00;;;;;19.23;100.00;100992.19;5079062;28;45182;-80
2022/06/30 05:39:47;;;;;;;;;4.25;2.75;;;;;19.25;100.00;100990.47;5077855;28;45319;-85
2022/06/30 05:42:12;;;;;;;;;4.00;3.00;;;;;19.24;100.00;100987.81;5069383;28;48010;-87
2022/06/30 05:44:38;;;;;;;;;3.50;3.50;;;;;19.21;100.00;100987.78;5080893;28;45232;-85
2022/06/30 05:47:04;;;;;;;;;2.50;2.25;;;;;19.20;100.00;100992.16;5083485;28;45521;-85
2022/06/30 05:49:30;;;;;;;;;3.25;3.00;;;;;19.20;100.00;100994.78;5079521;28;45322;-84
2022/06/30 05:51:56;;;;;;;;;6.75;5.00;;;;;19.19;100.00;100998.28;5078234;28;46054;-86
2022/06/30 05:54:21;;;;;;;;;4.25;4.00;;;;;19.19;100.00;100995.66;5077784;27;45864;-89
2022/06/30 05:56:47;;;;;;;;;3.75;2.50;;;;;19.24;100.00;100999.19;5078466;27;45363;-85
2022/06/30 05:59:13;;;;;;;;;4.75;4.75;;;;;19.28;100.00;100994.84;5080504;28;45299;-88
2022/06/30 06:01:38;;;;;;;;;4.50;3.00;;;;;19.33;100.00;100993.19;5082960;27;45431;-84
2022/06/30 06:04:05;;;;;;;;;5.00;5.00;;;;;19.38;100.00;100994.13;5078431;28;45239;-83
2022/06/30 06:06:30;;;;;;;;;4.50;3.25;;;;;19.41;100.00;100996.75;5085718;27;45428;-86
2022/06/30 06:08:56;;;;;;;;;4.00;4.00;;;;;19.40;100.00;101002.88;5079827;28;45508;-85
2022/06/30 06:11:21;;;;;;;;;4.00;3.00;;;;;19.42;100.00;100998.53;5060300;28;45579;-85
2022/06/30 06:13:47;;;;;;;;;4.50;3.75;;;;;19.43;100.00;100999.44;5077287;28;45182;-83
2022/06/30 06:16:12;;;;;;;;;4.75;4.00;;;;;19.45;100.00;100988.06;5077291;28;45426;-84
2022/06/30 06:18:38;;;;;;;;;4.50;3.50;;;;;19.48;100.00;100998.63;5077106;28;45383;-84
2022/06/30 06:21:04;;;;;;;;;8.00;5.00;;;;;19.49;100.00;101004.72;5076460;27;45976;-87
2022/06/30 06:23:29;;;;;;;;;3.75;3.00;;;;;19.48;100.00;101000.34;5077052;28;45471;-86
2022/06/30 06:25:55;;;;;;;;;4.50;4.50;;;;;19.48;100.00;101008.22;5076922;27;45265;-85
2022/06/30 06:31:05;;;;;;;;;4.00;2.00;;;;;19.51;100.00;100997.75;5079727;28;45454;-86
2022/06/30 06:33:30;;;;;;;;;3.00;3.00;;;;;19.47;100.00;100996.84;5077012;28;45355;-86
2022/06/30 06:35:56;;;;;;;;;2.00;2.00;;;;;19.42;100.00;100992.41;5078076;28;45391;-81
2022/06/30 06:38:22;;;;;;;;;1.00;1.00;;;;;19.43;100.00;101000.28;5077761;27;45395;-84
2022/06/30 06:40:47;;;;;;;;;4.00;4.00;;;;;19.42;100.00;101001.16;5060489;28;46651;-83
2022/06/30 06:43:13;;;;;;;;;4.00;3.00;;;;;19.41;100.00;101012.53;5068655;27;45675;-82
2022/06/30 06:45:38;;;;;;;;;4.00;3.00;;;;;19.39;100.00;101018.63;5075302;28;45383;-82
2022/06/30 06:48:04;;;;;;;;;3.50;3.50;;;;;19.32;100.00;101025.53;5077418;27;45609;-81
2022/06/30 06:50:30;;;;;;;;;4.00;2.25;;;;;19.28;100.00;101023.72;5076202;27;45297;-84
2022/06/30 06:52:56;;;;;;;;;3.75;2.50;;;;;19.22;100.00;101021.03;5077243;27;45178;-83
2022/06/30 06:55:21;;;;;;;;;6.25;3.75;;;;;19.22;100.00;101034.16;5062498;28;45435;-83
2022/06/30 06:57:48;;;;;;;;;4.25;3.25;;;;;19.21;100.00;101024.53;5076594;28;45408;-84
2022/06/30 07:00:14;;;;;;;;;4.75;3.50;;;;;19.27;100.00;101032.50;5076164;28;45512;-83
2022/06/30 07:03:16;;;;;;;;;3.50;3.50;;;;;19.30;100.00;101046.53;5076726;28;45783;-83
2022/06/30 07:05:42;;;;;;;;;1.75;1.75;;;;;19.30;100.00;101050.88;5089797;27;45370;-86
2022/06/30 07:08:07;;;;;;;;;2.75;2.75;;;;;19.32;100.00;101060.56;5075615;27;45509;-81
2022/06/30 07:10:33;;;;;;;;;4.00;2.00;;;;;19.32;100.00;101064.91;5088110;27;45829;-79
2022/06/30 07:12:59;;;;;;;;;4.00;3.00;;;;;19.33;100.00;101067.56;5079261;27;45394;-79
2022/06/30 07:15:24;;;;;;;;;3.00;1.50;;;;;19.32;100.00;101068.44;5075319;28;45498;-79
2022/06/30 07:17:50;;;;;;;;;2.00;2.00;;;;;19.30;100.00;101071.88;5078007;27;45442;-80
2022/06/30 07:20:16;;;;;;;;;4.50;4.00;;;;;19.30;100.00;101066.63;5085855;27;45444;-80
2022/06/30 07:22:42;;;;;;;;;4.75;3.25;;;;;19.29;100.00;101063.16;5089551;27;45517;-80
2022/06/30 07:25:08;;;;;;;;;4.50;3.50;;;;;19.27;100.00;101064.88;5080271;27;45283;-79
2022/06/30 07:27:34;;;;;;;;;2.25;2.00;;;;;19.22;100.00;101056.03;5074217;28;45412;-79
2022/06/30 07:30:00;;;;;;;;;4.00;2.75;;;;;19.20;100.00;101056.88;5074414;27;45440;-80
2022/06/30 07:32:26;;;;;;;;;4.25;4.00;;;;;19.24;100.00;101058.69;5059282;28;45772;-80
2022/06/30 07:34:51;;;;;;;;;3.75;3.75;;;;;19.21;100.00;101056.94;5065052;27;45408;-81
2022/06/30 07:37:17;;;;;;;;;5.25;4.25;;;;;19.18;100.00;101063.00;5095984;27;45306;-80
2022/06/30 07:39:43;;;;;;;;;4.00;4.00;;;;;19.17;100.00;101060.34;5075910;28;46433;-80
2022/06/30 07:42:08;;;;;;;;;7.25;4.00;;;;;19.13;100.00;101058.53;5075660;28;45335;-80
2022/06/30 07:44:34;;;;;;;;;3.00;3.00;;;;;19.08;100.00;101053.22;5076189;28;45402;-80
2022/06/30 07:47:00;;;;;;;;;3.00;3.00;;;;;19.10;100.00;101051.50;5089761;27;45476;-81
2022/06/30 07:49:26;;;;;;;;;5.00;5.00;;;;;19.15;100.00;101046.31;5096552;27;45573;-80
2022/06/30 07:51:53;;;;;;;;;4.75;3.25;;;;;19.16;100.00;101050.72;5077577;28;45342;-79
2022/06/30 07:54:19;;;;;;;;;4.50;3.75;;;;;19.18;100.00;101054.25;5080086;27;45480;-78
2022/06/30 07:56:45;;;;;;;;;3.75;3.75;;;;;19.16;100.00;101062.13;5099606;27;45255;-81
2022/06/30 07:59:11;;;;;;;;;3.00;3.00;;;;;19.11;100.00;101063.78;5094108;27;46068;-83
2022/06/30 08:01:37;;;;;;;;;3.00;3.00;;;;;19.06;100.00;101059.31;5069970;27;45762;-82
2022/06/30 08:04:03;;;;;;;;;4.75;3.00;;;;;19.00;100.00;101060.13;5099709;27;45478;-84
2022/06/30 08:06:28;;;;;;;;;2.50;2.50;;;;;18.94;100.00;101060.91;5088722;27;45639;-82
2022/06/30 08:08:54;;;;;;;;;2.50;2.50;;;;;18.92;100.00;101054.72;5086232;27;45577;-80
2022/06/30 08:11:20;;;;;;;;;3.00;3.00;;;;;18.87;100.00;101053.78;5085056;27;45491;-81
2022/06/30 08:13:46;;;;;;;;;6.50;3.50;;;;;18.82;100.00;101053.72;5073706;27;45346;-80
2022/06/30 08:16:14;;;;;;;;;4.50;3.00;;;;;18.79;100.00;101047.56;5086188;27;45636;-79
2022/06/30 08:18:41;;;;;;;;;3.00;2.75;;;;;18.77;100.00;101046.66;5097805;27;45280;-79
2022/06/30 08:21:07;;;;;;;;;2.75;2.75;;;;;18.77;100.00;101052.78;5086949;27;45891;-80
2022/06/30 08:23:33;;;;;;;;;2.00;2.00;;;;;18.74;100.00;101055.34;5082814;27;45415;-80
2022/06/30 08:25:59;;;;;;;;;3.00;2.00;;;;;18.71;100.00;101063.19;5099326;27;45649;-81
2022/06/30 08:28:24;;;;;;;;;3.25;3.25;;;;;18.66;100.00;101052.63;5080357;27;46766;-82
2022/06/30 08:30:50;;;;;;;;;2.00;2.00;;;;;18.63;100.00;101051.66;5099105;27;45442;-82
2022/06/30 08:33:16;;;;;;;;;2.00;2.00;;;;;18.59;100.00;101047.25;5096529;27;45425;-81
2022/06/30 08:35:43;;;;;;;;;1.00;1.00;;;;;18.58;100.00;101030.63;5099551;27;45337;-81
2022/06/30 08:38:09;;;;;;;;;1.25;1.00;;;;;18.56;100.00;101029.75;5091208;27;46185;-80
2022/06/30 08:43:23;;;;;;;;;1.75;1.75;;;;;18.50;100.00;101040.13;5077969;27;45237;-83
2022/06/30 08:45:51;;;;;;;;;1.25;1.00;;;;;18.50;100.00;101045.34;5080922;27;45335;-80
2022/06/30 08:48:17;;;;;;;;;1.25;1.25;;;;;18.51;100.00;101040.16;5088000;27;45627;-81
2022/06/30 08:50:45;;;;;;;;;3.00;1.25;;;;;18.54;100.00;101037.56;5085269;27;45350;-81
2022/06/30 08:53:19;;;;;;;;;1.00;1.00;;;;;18.56;100.00;101030.59;5086995;27;45237;-81
2022/06/30 08:55:50;;;;;;;;;0.75;0.75;;;;;18.59;100.00;101023.66;5100440;27;45364;-81
2022/06/30 08:58:20;;;;;;;;;2.00;2.00;;;;;18.62;100.00;101021.09;5087072;27;45500;-81
2022/06/30 09:00:46;;;;;;;;;5.75;2.00;;;;;18.64;100.00;101007.13;5042719;28;45635;-80
2022/06/30 09:03:11;;;;;;;;;0.50;0.50;;;;;18.66;100.00;101012.38;5077462;28;45227;-80
2022/06/30 09:05:39;;;;;;;;;2.50;1.50;;;;;18.65;100.00;101002.75;5078870;28;45851;-80
2022/06/30 09:08:05;;;;;;;;;2.00;2.00;;;;;18.65;100.00;101002.75;5081864;27;45407;-82
2022/06/30 09:10:31;;;;;;;;;1.00;1.00;;;;;18.61;100.00;101004.44;5088062;27;45616;-82
2022/06/30 09:13:04;;;;;;;;;1.75;1.75;;;;;18.58;100.00;100996.53;5078929;28;45428;-83
2022/06/30 09:15:31;;;;;;;;;3.25;3.00;;;;;18.59;100.00;101000.06;5083161;27;45370;-82
2022/06/30 09:18:01;;;;;;;;;1.00;1.00;;;;;18.62;100.00;100997.50;5083674;27;45410;-81
2022/06/30 09:20:39;;;;;;;;;1.75;1.50;;;;;18.59;100.00;100989.56;5057712;28;45780;-81
2022/06/30 09:23:30;;;;;;;;;1.50;1.50;;;;;18.59;100.00;100992.19;5075667;27;45469;-81
2022/06/30 09:26:01;;;;;;;;;4.75;2.75;;;;;18.59;100.00;101005.28;5062424;27;45497;-81
2022/06/30 09:28:51;;;;;;;;;3.00;2.75;;;;;18.55;100.00;101007.88;5086713;27;45382;-81
2022/06/30 09:31:38;;;;;;;;;2.00;2.00;;;;;18.57;100.00;101015.78;5065856;27;45738;-81
2022/06/30 09:34:20;;;;;;;;;3.00;1.50;;;;;18.56;100.00;101021.88;5064905;27;45408;-81
2022/06/30 09:36:51;;;;;;;;;1.00;1.00;;;;;18.55;100.00;101031.47;5088252;27;45535;-81
2022/06/30 09:39:19;;;;;;;;;2.50;1.25;;;;;18.54;100.00;101039.31;5078439;27;45437;-80
2022/06/30 09:41:47;;;;;;;;;2.75;2.75;;;;;18.50;100.00;101037.50;5079263;27;45300;-79
2022/06/30 09:44:15;;;;;;;;;1.00;1.00;;;;;18.49;100.00;101043.59;5077418;27;45296;-81
2022/06/30 09:47:03;;;;;;;;;2.00;1.50;;;;;18.47;100.00;101046.19;5080295;27;45466;-81
2022/06/30 09:49:34;;;;;;;;;0.75;0.75;;;;;18.49;100.00;101041.88;5056382;27;45413;-80
2022/06/30 09:52:13;;;;;;;;;2.00;2.00;;;;;18.51;100.00;101028.78;5079808;27;45779;-78
2022/06/30 09:54:40;;;;;;;;;2.00;1.00;;;;;18.52;100.00;101031.41;5063935;27;45599;-79
2022/06/30 09:57:07;;;;;;;;;3.00;1.75;;;;;18.53;100.00;101040.16;5088964;27;45484;-79
2022/06/30 09:59:34;;;;;;;;;3.00;2.00;;;;;18.51;100.00;101048.03;5085854;27;46230;-79
2022/06/30 10:02:06;;;;;;;;;1.00;1.00;;;;;18.50;100.00;101054.13;5077161;27;45511;-81
2022/06/30 10:04:31;;;;;;;;;1.00;1.00;;;;;18.47;100.00;101047.91;5077269;28;45461;-78
2022/06/30 10:06:57;;;;;;;;;2.50;2.00;;;;;18.47;100.00;101050.53;5079009;27;45300;-80
2022/06/30 10:09:25;;;;;;;;;1.00;1.00;;;;;18.46;100.00;101047.06;5076617;28;45622;-80
2022/06/30 10:11:52;;;;;;;;;1.00;1.00;;;;;18.47;100.00;101046.19;5082686;27;45457;-77
2022/06/30 10:14:18;;;;;;;;;1.00;1.00;;;;;18.47;100.00;101045.31;5087919;27;45326;-78
2022/06/30 10:16:44;;;;;;;;;1.75;1.75;;;;;18.48;100.00;101047.97;5086440;28;45488;-77
2022/06/30 10:19:11;;;;;;;;;3.00;2.00;;;;;18.50;100.00;101050.59;5076239;27;45362;-77
2022/06/30 10:21:38;;;;;;;;;2.00;2.00;;;;;18.53;100.00;101055.91;5058987;28;45248;-77
2022/06/30 10:24:08;;;;;;;;;1.75;1.00;;;;;18.57;100.00;101068.22;5077417;27;45332;-77
2022/06/30 10:29:19;;;;;;;;;3.75;2.50;;;;;18.61;100.00;101075.25;5078585;28;46311;-76
2022/06/30 10:31:54;;;;;;;;;2.00;2.00;;;;;18.56;100.00;101071.69;5079202;27;45253;-77
2022/06/30 10:34:26;;;;;;;;;4.00;3.00;;;;;18.50;100.00;101067.22;5077783;28;45506;-78
2022/06/30 10:37:08;;;;;;;;;4.25;2.00;;;;;18.47;100.00;101080.28;5076981;28;45463;-78
2022/06/30 10:39:50;;;;;;;;;3.00;2.50;;;;;18.41;100.00;101083.69;5093401;27;45418;-76
2022/06/30 10:42:56;;;;;;;;;1.50;1.00;;;;;18.33;100.00;101085.31;5099270;27;45243;-77
2022/06/30 10:45:30;;;;;;;;;2.25;1.00;;;;;18.29;100.00;101083.47;5054220;28;45297;-77
2022/06/30 10:47:59;;;;;;;;;3.00;2.25;;;;;18.27;100.00;101079.94;5096258;27;45130;-78
2022/06/30 10:50:34;;;;;;;;;2.00;2.00;;;;;18.32;100.00;101078.28;5096492;27;45413;-77
2022/06/30 10:53:01;;;;;;;;;3.50;1.75;;;;;18.37;100.00;101084.47;5078480;27;45528;-78
2022/06/30 10:55:27;;;;;;;;;6.75;5.00;;;;;18.45;100.00;101084.63;5094121;27;45430;-78
2022/06/30 10:58:06;;;;;;;;;4.25;3.00;;;;;18.56;100.00;101090.06;5078282;27;45541;-78
2022/06/30 11:01:02;;;;;;;;;2.00;2.00;;;;;18.65;100.00;101103.31;5075758;27;45359;-78
2022/06/30 11:03:32;;;;;;;;;6.00;3.00;;;;;18.71;100.00;101113.03;5076163;27;45319;-78
2022/06/30 11:06:01;;;;;;;;;2.50;2.50;;;;;18.75;100.00;101109.56;5076665;28;45357;-78
2022/06/30 11:08:36;;;;;;;;;2.50;2.50;;;;;18.78;100.00;101112.25;5072324;27;45255;-77
2022/06/30 11:11:23;;;;;;;;;4.25;2.00;;;;;18.80;100.00;101120.13;5085829;27;45425;-78
2022/06/30 11:14:01;;;;;;;;;2.25;2.25;;;;;18.82;100.00;101114.06;5088402;27;45442;-78
2022/06/30 11:16:27;;;;;;;;;2.00;2.00;;;;;18.85;100.00;101107.97;5075793;27;45330;-78
2022/06/30 11:18:53;;;;;;;;;5.00;3.00;;;;;18.86;100.00;101102.75;5076124;28;45469;-78
2022/06/30 11:21:19;;;;;;;;;4.00;3.00;;;;;18.84;100.00;101106.22;5076985;27;45441;-78
2022/06/30 11:23:47;;;;;;;;;2.00;2.00;;;;;18.82;100.00;101102.69;5092991;27;45413;-78
2022/06/30 11:29:03;;;;;;;;;2.25;2.25;;;;;18.76;100.00;101106.09;5067548;27;45331;-78
2022/06/30 11:31:33;;;;;;;;;2.00;2.00;;;;;18.78;100.00;101093.88;5063841;27;45559;-78
2022/06/30 11:34:08;;;;;;;;;2.75;2.00;;;;;18.81;100.00;101086.06;5070088;27;45658;-78
2022/06/30 11:36:35;;;;;;;;;5.00;4.00;;;;;18.90;100.00;101079.19;5037876;28;45326;-78
2022/06/30 11:39:05;;;;;;;;;3.00;3.00;;;;;18.96;100.00;101081.91;5075738;27;45390;-77
2022/06/30 11:44:17;;;;;;;;;2.75;1.75;;;;;18.88;100.00;101102.78;5055555;28;45696;-77
2022/06/30 11:46:54;;;;;;;;;3.00;2.00;;;;;18.80;100.00;101094.78;5055654;28;45371;-77
2022/06/30 11:49:22;;;;;;;;;3.00;1.75;;;;;18.73;100.00;101090.31;5055426;28;45279;-77
2022/06/30 11:51:47;;;;;;;;;3.00;3.00;;;;;18.77;100.00;101097.38;5067629;27;46366;-77